Surface/Precipitation History
07/28/2014 14:51  to  7/29/2014 14:51
Change End Date:
Date/Time
(MDT)
Sf
Temp Chem Water Layer Surface Precipitation
Sf Sub Frz Factor Pct Depth IcePct Cond Salin Type Intens Accum Rate
07/29/2014 14:25 Dry 99.9F 76F - - - - - 0 mhos 0 None None - -
07/29/2014 14:15 Dry 102.6F 75F - - - - - 0 mhos 0 None None - -
07/29/2014 14:05 Dry 100.9F 75F - - - - - 0 mhos 0 None None - -
07/29/2014 13:55 Dry 99.9F 75F - - - - - 0 mhos 0 None None - -
07/29/2014 13:55 Dry 99.9F 75F - - - - - 0 mhos 0 None None - -
07/29/2014 13:45 Dry 99.5F 75F - - - - - 0 mhos 0 None None - -
07/29/2014 13:35 Dry 99.0F 74F - - - - - 0 mhos 0 None None - -
07/29/2014 13:25 Dry 99.1F 74F - - - - - 0 mhos 0 None None - -
07/29/2014 13:25 Dry 99.1F 74F - - - - - 0 mhos 0 None None - -
07/29/2014 13:15 Dry 102.2F 74F - - - - - 0 mhos 0 None None - -
07/29/2014 13:05 Dry 105.1F 74F - - - - - 0 mhos 0 None None - -
07/29/2014 12:55 Dry 109.4F 74F - - - - - 0 mhos 0 None None - -
07/29/2014 12:55 Dry 109.8F 74F - - - - - 0 mhos 0 None None - -
07/29/2014 12:45 Dry 108.1F 73F - - - - - 0 mhos 0 None None - -
07/29/2014 12:35 Dry 105.4F 73F - - - - - 0 mhos 0 None None - -
Date/Time
(MDT)
Sf
Temp Chem Water Layer Surface Precipitation
Sf Sub Frz Factor Pct Depth IcePct Cond Salin Type Intens Accum Rate
07/29/2014 12:25 Dry 96.4F 73F - - - - - 0 mhos 0 None None - -
07/29/2014 12:25 Dry 96.4F 73F - - - - - 0 mhos 0 None None - -
07/29/2014 12:15 Dry 86.4F 73F - - - - - 0 mhos 0 None None - -
07/29/2014 12:05 Dry 84.0F 73F - - - - - 0 mhos 0 None None - -
07/29/2014 11:55 Dry 82.2F 73F - - - - - 0 mhos 0 None None - -
07/29/2014 11:55 Dry 82.2F 73F - - - - - 0 mhos 0 None None - -
07/29/2014 11:45 Dry 80.6F 73F - - - - - 0 mhos 0 None None - -
07/29/2014 11:35 Dry 77.9F 73F - - - - - 0 mhos 0 None None - -
07/29/2014 11:25 Dry 75.2F 73F - - - - - 0 mhos 0 None None - -
07/29/2014 11:25 Dry 75.2F 73F - - - - - 0 mhos 0 None None - -
07/29/2014 11:15 Dry 73.4F 73F - - - - - 0 mhos 0 None None - -
07/29/2014 11:05 Dry 71.8F 73F - - - - - 0 mhos 0 None None - -
07/29/2014 10:55 Dry 70.5F 74F - - - - - 0 mhos 0 None None - -
07/29/2014 10:55 Dry 70.5F 74F - - - - - 0 mhos 0 None None - -
07/29/2014 10:45 Dry 69.3F 74F - - - - - 0 mhos 0 None None - -
Date/Time
(MDT)
Sf
Temp Chem Water Layer Surface Precipitation
Sf Sub Frz Factor Pct Depth IcePct Cond Salin Type Intens Accum Rate
07/29/2014 10:35 Dry 68.2F 74F - - - - - 0 mhos 0 None None - -
07/29/2014 10:25 Wet 66.0F 74F 32F 15 0% 0.00 in 0% 0 mhos 0 None None - -
07/29/2014 10:25 Wet 66.4F 74F 32F 5 0% 0.00 in 0% 0 mhos 0 None None - -
07/29/2014 10:15 Wet 66.6F 74F 32F 5 0% 0.40 in 0% 0 mhos 0 None None - -
07/29/2014 10:05 Wet 65.8F 74F 32F 5 0% 0.20 in 0% 0 mhos 0 None None - -
07/29/2014 09:55 Wet 65.7F 74F 32F 5 0% 0.10 in 0% 0 mhos 0 Yes - - -
07/29/2014 09:54 Wet 65.7F 74F 32F 10 0% 0.10 in 0% 0 mhos 0 Yes - - -
07/29/2014 09:44 Wet 66.7F 74F 32F 5 0% 0.30 in 0% 0 mhos 0 Yes - - -
07/29/2014 09:34 Dry 65.8F 74F - - - - - 0 mhos 0 None None - -
07/29/2014 09:25 Dry 64.8F 74F - - - - - 0 mhos 0 Yes - - -
07/29/2014 09:24 Dry 64.6F 74F - - - - - 0 mhos 0 Yes - - -
07/29/2014 09:14 Dry 63.5F 74F - - - - - 0 mhos 0 None None - -
07/29/2014 09:04 Wet 62.6F 75F 32F 50 0% 0.00 in 0% 0 mhos 0 None None - -
07/29/2014 08:55 Wet 62.6F 75F 32F 5 0% 0.00 in 0% 0 mhos 0 None None - -
07/29/2014 08:54 Wet 62.6F 75F 32F 5 0% 0.00 in 0% 0 mhos 0 None None - -
Date/Time
(MDT)
Sf
Temp Chem Water Layer Surface Precipitation
Sf Sub Frz Factor Pct Depth IcePct Cond Salin Type Intens Accum Rate
07/29/2014 08:44 Wet 62.4F 75F 32F 5 0% 0.00 in 0% 0 mhos 0 None None - -
07/29/2014 08:34 Wet 62.4F 75F 32F 5 0% 0.20 in 0% 0 mhos 0 None None - -
07/29/2014 08:25 Wet 62.2F 75F 32F 5 0% 0.10 in 0% 0 mhos 0 Yes - - -
07/29/2014 08:24 Wet 62.2F 75F 32F 5 0% 0.10 in 0% 0 mhos 0 Yes - - -
07/29/2014 08:14 Wet 62.4F 75F 32F 5 0% 0.00 in 0% 0 mhos 0 None None - -
07/29/2014 08:04 Wet 63.0F 75F 32F 5 0% 0.20 in 0% 0 mhos 0 None None - -
07/29/2014 07:55 Wet 62.8F 75F 32F 5 0% 0.10 in 0% 0 mhos 0 None None - -
07/29/2014 07:54 Wet 63.0F 75F 32F 5 0% 0.10 in 0% 0 mhos 0 None None - -
07/29/2014 07:44 Wet 62.6F 76F 32F 5 0% 0.00 in 0% 0 mhos 0 None None - -
07/29/2014 07:34 Wet 63.0F 76F 32F 5 0% 0.00 in 0% 0 mhos 0 None None - -
07/29/2014 07:25 Wet 62.8F 76F 32F 5 0% 0.00 in 0% 0 mhos 0 Yes - - -
07/29/2014 07:24 Wet 63.0F 76F 32F 5 0% 0.00 in 0% 0 mhos 0 Yes - - -
07/29/2014 07:14 Wet 62.6F 76F 32F 5 0% 0.00 in 0% 0 mhos 0 Yes - - -
07/29/2014 07:04 Wet 62.4F 76F 32F 5 0% 0.00 in 0% 0 mhos 0 Yes - - -
07/29/2014 06:55 Wet 62.6F 76F 32F 5 0% 0.00 in 0% 0 mhos 0 Yes - - -
Date/Time
(MDT)
Sf
Temp Chem Water Layer Surface Precipitation
Sf Sub Frz Factor Pct Depth IcePct Cond Salin Type Intens Accum Rate
07/29/2014 06:54 Wet 62.8F 76F 32F 5 0% 0.00 in 0% 0 mhos 0 Yes - - -
07/29/2014 06:44 Wet 63.1F 76F 32F 5 0% 0.00 in 0% 0 mhos 0 None None - -
07/29/2014 06:34 Wet 63.1F 76F 32F 5 0% 0.00 in 0% 0 mhos 0 None None - -
07/29/2014 06:25 Wet 63.1F 76F 32F 5 0% 0.00 in 0% 0 mhos 0 None None - -
07/29/2014 06:24 Wet 63.1F 76F 32F 5 0% 0.00 in 0% 0 mhos 0 Yes - - -
07/29/2014 06:14 Wet 63.5F 77F 32F 5 0% 0.00 in 0% 0 mhos 0 Yes - - -
07/29/2014 06:04 Wet 63.9F 77F 32F 5 0% 0.20 in 0% 0 mhos 0 None None - -
07/29/2014 05:55 Wet 63.5F 77F 32F 5 0% 0.10 in 0% 0 mhos 0 Yes - - -
07/29/2014 05:54 Wet 64.0F 77F 32F 5 0% 0.10 in 0% 0 mhos 0 Yes - - -
07/29/2014 05:44 Dry 65.1F 77F - - - - - 0 mhos 0 None None - -
07/29/2014 05:34 Dry 64.9F 77F - - - - - 0 mhos 0 None None - -
07/29/2014 05:25 Dry 64.8F 77F - - - - - 0 mhos 0 None None - -
07/29/2014 05:24 Dry 64.4F 77F - - - - - 0 mhos 0 None None - -
07/29/2014 05:14 Wet 63.9F 78F 32F 5 0% 0.00 in 0% 0 mhos 0 None None - -
07/29/2014 05:03 Wet 64.4F 78F 32F 5 0% 0.00 in 0% 0 mhos 0 None None - -
Date/Time
(MDT)
Sf
Temp Chem Water Layer Surface Precipitation
Sf Sub Frz Factor Pct Depth IcePct Cond Salin Type Intens Accum Rate
07/29/2014 04:55 Wet 64.6F 78F 32F 5 0% 0.00 in 0% 0 mhos 0 Yes - - -
07/29/2014 04:53 Wet 64.8F 78F 32F 5 0% 0.00 in 0% 0 mhos 0 Yes - - -
07/29/2014 04:43 Wet 65.5F 78F 32F 5 0% 0.00 in 0% 0 mhos 0 None None - -
07/29/2014 04:33 Wet 66.2F 78F 32F 5 0% 0.00 in 0% 0 mhos 0 Yes - - -
07/29/2014 04:25 Wet 66.7F 78F 32F 5 0% 0.00 in 0% 0 mhos 0 Yes - - -
07/29/2014 04:23 Wet 66.7F 78F 32F 5 0% 0.00 in 0% 0 mhos 0 Yes - - -
07/29/2014 04:13 Dry 68.0F 78F - - - - - 0 mhos 0 None None - -
07/29/2014 04:03 Dry 67.8F 78F - - - - - 0 mhos 0 None None - -
07/29/2014 03:55 Dry 67.8F 78F - - - - - 0 mhos 0 None None - -
07/29/2014 03:53 Dry 68.0F 78F - - - - - 0 mhos 0 None None - -
07/29/2014 03:43 Dry 67.8F 78F - - - - - 0 mhos 0 None None - -
07/29/2014 03:33 Dry 68.0F 78F - - - - - 0 mhos 0 None None - -
07/29/2014 03:25 Dry 68.0F 79F - - - - - 0 mhos 0 None None - -
07/29/2014 03:23 Dry 68.2F 79F - - - - - 0 mhos 0 None None - -
07/29/2014 03:13 Dry 68.2F 79F - - - - - 0 mhos 0 None None - -
Date/Time
(MDT)
Sf
Temp Chem Water Layer Surface Precipitation
Sf Sub Frz Factor Pct Depth IcePct Cond Salin Type Intens Accum Rate
07/29/2014 03:03 Dry 68.4F 79F - - - - - 0 mhos 0 None None - -
07/29/2014 02:55 Dry 68.4F 79F - - - - - 0 mhos 0 None None - -
07/29/2014 02:53 Dry 68.4F 79F - - - - - 0 mhos 0 None None - -
07/29/2014 02:43 Dry 68.4F 79F - - - - - 0 mhos 0 None None - -
07/29/2014 02:33 Dry 68.7F 79F - - - - - 0 mhos 0 None None - -
07/29/2014 02:25 Dry 68.9F 79F - - - - - 0 mhos 0 None None - -
07/29/2014 02:23 Dry 68.9F 79F - - - - - 0 mhos 0 None None - -
07/29/2014 02:13 Dry 69.1F 79F - - - - - 0 mhos 0 None None - -
07/29/2014 02:03 Dry 69.1F 80F - - - - - 0 mhos 0 None None - -
07/29/2014 01:55 Dry 69.3F 80F - - - - - 0 mhos 0 None None - -
07/29/2014 01:53 Dry 69.3F 80F - - - - - 0 mhos 0 None None - -
07/29/2014 01:43 Dry 69.8F 80F - - - - - 0 mhos 0 None None - -
07/29/2014 01:33 Dry 70.0F 80F - - - - - 0 mhos 0 None None - -
07/29/2014 01:25 Dry 70.3F 80F - - - - - 0 mhos 0 None None - -
07/29/2014 01:23 Dry 70.5F 80F - - - - - 0 mhos 0 None None - -
Date/Time
(MDT)
Sf
Temp Chem Water Layer Surface Precipitation
Sf Sub Frz Factor Pct Depth IcePct Cond Salin Type Intens Accum Rate
07/29/2014 01:13 Dry 70.7F 80F - - - - - 0 mhos 0 None None - -
07/29/2014 01:03 Dry 70.7F 80F - - - - - 0 mhos 0 None None - -
07/29/2014 00:55 Dry 70.9F 80F - - - - - 0 mhos 0 None None - -
07/29/2014 00:53 Dry 70.9F 80F - - - - - 0 mhos 0 None None - -
07/29/2014 00:43 Dry 71.1F 80F - - - - - 0 mhos 0 None None - -
07/29/2014 00:33 Dry 71.1F 81F - - - - - 0 mhos 0 None None - -
07/29/2014 00:25 Dry 71.1F 81F - - - - - 0 mhos 0 None None - -
07/29/2014 00:23 Dry 71.1F 81F - - - - - 0 mhos 0 None None - -
07/29/2014 00:13 Dry 71.2F 81F - - - - - 0 mhos 0 None None - -
07/29/2014 00:10 Dry 71.2F 81F - - - - - 0 mhos 0 None None - -
07/29/2014 00:02 Dry 71.2F 81F - - - - - 0 mhos 0 None None - -
07/28/2014 23:56 Dry 71.2F 81F - - - - - 0 mhos 0 None None - -
07/28/2014 23:52 Dry 71.2F 81F - - - - - 0 mhos 0 None None - -
07/28/2014 23:42 Dry 71.2F 81F - - - - - 0 mhos 0 None None - -
07/28/2014 23:32 Dry 71.1F 81F - - - - - 0 mhos 0 None None - -
Date/Time
(MDT)
Sf
Temp Chem Water Layer Surface Precipitation
Sf Sub Frz Factor Pct Depth IcePct Cond Salin Type Intens Accum Rate
07/28/2014 23:26 Dry 70.7F 82F - - - - - 0 mhos 0 None None - -
07/28/2014 23:22 Dry 70.5F 82F - - - - - 0 mhos 0 None None - -
07/28/2014 23:12 Wet 70.0F 82F 32F 5 0% 0.00 in 0% 0 mhos 0 None None - -
07/28/2014 23:02 Wet 71.2F 82F 32F 5 0% 0.00 in 0% 0 mhos 0 Yes - - -
07/28/2014 22:56 Dry 73.6F 82F - - - - - 0 mhos 0 None None - -
07/28/2014 22:52 Dry 73.6F 82F - - - - - 0 mhos 0 None None - -
07/28/2014 22:42 Dry 73.8F 82F - - - - - 0 mhos 0 None None - -
07/28/2014 22:32 Dry 73.9F 82F - - - - - 0 mhos 0 None None - -
07/28/2014 22:22 Dry 73.9F 82F - - - - - 0 mhos 0 None None - -
07/28/2014 22:12 Dry 74.3F 82F - - - - - 0 mhos 0 None None - -
07/28/2014 22:02 Dry 74.7F 83F - - - - - 0 mhos 0 None None - -
07/28/2014 21:55 Dry 74.7F 83F - - - - - 0 mhos 0 None None - -
07/28/2014 21:52 Dry 74.7F 83F - - - - - 0 mhos 0 None None - -
07/28/2014 21:42 Dry 75.0F 83F - - - - - 0 mhos 0 None None - -
07/28/2014 21:32 Dry 75.4F 83F - - - - - 0 mhos 0 None None - -
Date/Time
(MDT)
Sf
Temp Chem Water Layer Surface Precipitation
Sf Sub Frz Factor Pct Depth IcePct Cond Salin Type Intens Accum Rate
07/28/2014 21:25 Dry 75.4F 83F - - - - - 0 mhos 0 None None - -
07/28/2014 21:22 Dry 75.4F 83F - - - - - 0 mhos 0 None None - -
07/28/2014 21:12 Dry 75.7F 83F - - - - - 0 mhos 0 None None - -
07/28/2014 21:02 Dry 76.3F 83F - - - - - 0 mhos 0 None None - -
07/28/2014 20:55 Dry 76.8F 83F - - - - - 0 mhos 0 None None - -
07/28/2014 20:52 Dry 77.0F 83F - - - - - 0 mhos 0 None None - -
07/28/2014 20:42 Dry 77.7F 83F - - - - - 0 mhos 0 None None - -
07/28/2014 20:32 Dry 78.6F 84F - - - - - 0 mhos 0 None None - -
07/28/2014 20:25 Dry 79.0F 84F - - - - - 0 mhos 0 None None - -
07/28/2014 20:22 Dry 79.2F 84F - - - - - 0 mhos 0 None None - -
07/28/2014 20:12 Dry 79.7F 84F - - - - - 0 mhos 0 None None - -
07/28/2014 20:02 Dry 80.4F 84F - - - - - 0 mhos 0 None None - -
07/28/2014 19:55 Dry 80.6F 84F - - - - - 0 mhos 0 None None - -
07/28/2014 19:52 Dry 80.6F 84F - - - - - 0 mhos 0 None None - -
07/28/2014 19:42 Dry 81.5F 84F - - - - - 0 mhos 0 None None - -
Date/Time
(MDT)
Sf
Temp Chem Water Layer Surface Precipitation
Sf Sub Frz Factor Pct Depth IcePct Cond Salin Type Intens Accum Rate
07/28/2014 19:32 Dry 81.7F 84F - - - - - 0 mhos 0 None None - -
07/28/2014 19:25 Dry 81.5F 84F - - - - - 0 mhos 0 None None - -
07/28/2014 19:21 Dry 81.7F 84F - - - - - 0 mhos 0 None None - -
07/28/2014 19:11 Dry 82.4F 84F - - - - - 0 mhos 0 None None - -
07/28/2014 19:01 Dry 82.8F 84F - - - - - 0 mhos 0 None None - -
07/28/2014 18:55 Dry 83.7F 84F - - - - - 0 mhos 0 None None - -
07/28/2014 18:51 Dry 84.2F 84F - - - - - 0 mhos 0 None None - -
07/28/2014 18:41 Dry 85.1F 85F - - - - - 0 mhos 0 None None - -
07/28/2014 18:31 Dry 86.0F 85F - - - - - 0 mhos 0 None None - -
07/28/2014 18:25 Dry 86.7F 85F - - - - - 0 mhos 0 None None - -
07/28/2014 18:21 Dry 87.1F 85F - - - - - 0 mhos 0 None None - -
07/28/2014 18:11 Dry 87.3F 85F - - - - - 0 mhos 0 None None - -
07/28/2014 18:10 Dry 87.3F 85F - - - - - 0 mhos 0 None None - -
07/28/2014 18:01 Dry 87.6F 85F - - - - - 0 mhos 0 None None - -
07/28/2014 17:55 Dry 87.6F 85F - - - - - 0 mhos 0 None None - -
Date/Time
(MDT)
Sf
Temp Chem Water Layer Surface Precipitation
Sf Sub Frz Factor Pct Depth IcePct Cond Salin Type Intens Accum Rate
07/28/2014 17:51 Dry 87.8F 85F - - - - - 0 mhos 0 None None - -
07/28/2014 17:41 Dry 88.7F 85F - - - - - 0 mhos 0 None None - -
07/28/2014 17:40 Dry 88.7F 85F - - - - - 0 mhos 0 None None - -
07/28/2014 17:31 Dry 89.8F 85F - - - - - 0 mhos 0 None None - -
07/28/2014 17:25 Dry 90.1F 85F - - - - - 0 mhos 0 None None - -
07/28/2014 17:21 Dry 90.3F 85F - - - - - 0 mhos 0 None None - -
07/28/2014 17:11 Dry 91.9F 85F - - - - - 0 mhos 0 None None - -
07/28/2014 17:01 Dry 93.0F 84F - - - - - 0 mhos 0 None None - -
07/28/2014 16:56 Dry 93.9F 84F - - - - - 0 mhos 0 None None - -
07/28/2014 16:51 Dry 94.6F 84F - - - - - 0 mhos 0 None None - -
07/28/2014 16:41 Dry 96.3F 84F - - - - - 0 mhos 0 None None - -
07/28/2014 16:31 Dry 97.3F 84F - - - - - 0 mhos 0 None None - -
07/28/2014 16:25 Dry 98.6F 84F - - - - - 0 mhos 0 None None - -
07/28/2014 16:21 Dry 99.5F 84F - - - - - 0 mhos 0 None None - -
07/28/2014 16:11 Dry 101.5F 84F - - - - - 0 mhos 0 None None - -
Date/Time
(MDT)
Sf
Temp Chem Water Layer Surface Precipitation
Sf Sub Frz Factor Pct Depth IcePct Cond Salin Type Intens Accum Rate
07/28/2014 16:01 Dry 103.1F 84F - - - - - 0 mhos 0 None None - -
07/28/2014 15:55 Dry 104.7F 84F - - - - - 0 mhos 0 None None - -
07/28/2014 15:51 Dry 105.1F 83F - - - - - 0 mhos 0 None None - -
07/28/2014 15:41 Dry 106.7F 83F - - - - - 0 mhos 0 None None - -
07/28/2014 15:31 Dry 106.5F 83F - - - - - 0 mhos 0 None None - -
07/28/2014 15:25 Dry 106.3F 83F - - - - - 0 mhos 0 None None - -
07/28/2014 15:21 Dry 107.1F 83F - - - - - 0 mhos 0 None None - -
07/28/2014 15:11 Dry 108.5F 83F - - - - - 0 mhos 0 None None - -
07/28/2014 15:01 Dry 102.2F 82F - - - - - 0 mhos 0 None None - -
07/28/2014 14:55 Dry 101.7F 82F - - - - - 0 mhos 0 None None - -
Change End Date:
Copyright © 1998-2005 Surface Systems, Inc.
All Rights Reserved
Send comments about the data to:
SCAN Web ® is a registered trademark of Surface Systems, Inc.
SCAN Web Version 5.6